sensor_id;sensor_type;location;lat;lon;timestamp;P1;durP1;ratioP1;P2;durP2;ratioP2
3901;SDS011;1966;49.908;9.156;2022-10-16T00:04:25;3.10;;;2.80;;
3901;SDS011;1966;49.908;9.156;2022-10-16T00:09:24;4.03;;;3.70;;
3901;SDS011;1966;49.908;9.156;2022-10-16T00:14:25;3.50;;;3.20;;
3901;SDS011;1966;49.908;9.156;2022-10-16T00:19:24;4.20;;;3.80;;
3901;SDS011;1966;49.908;9.156;2022-10-16T00:24:24;7.93;;;3.90;;
3901;SDS011;1966;49.908;9.156;2022-10-16T00:29:23;6.53;;;2.83;;
3901;SDS011;1966;49.908;9.156;2022-10-16T00:34:24;2.60;;;2.40;;
3901;SDS011;1966;49.908;9.156;2022-10-16T00:39:23;2.17;;;2.03;;
3901;SDS011;1966;49.908;9.156;2022-10-16T00:44:46;2.23;;;1.93;;
3901;SDS011;1966;49.908;9.156;2022-10-16T00:49:47;1.83;;;1.73;;
3901;SDS011;1966;49.908;9.156;2022-10-16T00:54:48;2.57;;;2.37;;
3901;SDS011;1966;49.908;9.156;2022-10-16T00:59:48;6.00;;;2.00;;
3901;SDS011;1966;49.908;9.156;2022-10-16T01:04:50;1.90;;;1.80;;
3901;SDS011;1966;49.908;9.156;2022-10-16T01:09:52;1.80;;;1.70;;
3901;SDS011;1966;49.908;9.156;2022-10-16T01:14:56;3.13;;;1.60;;
3901;SDS011;1966;49.908;9.156;2022-10-16T01:20:03;1.87;;;1.77;;
3901;SDS011;1966;49.908;9.156;2022-10-16T01:25:03;3.33;;;1.60;;
3901;SDS011;1966;49.908;9.156;2022-10-16T01:30:07;1.67;;;1.57;;
3901;SDS011;1966;49.908;9.156;2022-10-16T01:35:09;1.70;;;1.60;;
3901;SDS011;1966;49.908;9.156;2022-10-16T01:40:11;2.50;;;1.40;;
3901;SDS011;1966;49.908;9.156;2022-10-16T01:45:12;2.73;;;1.63;;
3901;SDS011;1966;49.908;9.156;2022-10-16T01:50:13;1.53;;;1.43;;
3901;SDS011;1966;49.908;9.156;2022-10-16T01:55:17;2.67;;;1.73;;
3901;SDS011;1966;49.908;9.156;2022-10-16T02:00:19;7.20;;;2.40;;
3901;SDS011;1966;49.908;9.156;2022-10-16T02:05:20;1.70;;;1.60;;
3901;SDS011;1966;49.908;9.156;2022-10-16T02:10:21;1.70;;;1.60;;
3901;SDS011;1966;49.908;9.156;2022-10-16T02:15:22;1.50;;;1.40;;
3901;SDS011;1966;49.908;9.156;2022-10-16T02:20:22;4.70;;;1.53;;
3901;SDS011;1966;49.908;9.156;2022-10-16T02:25:24;1.50;;;1.40;;
3901;SDS011;1966;49.908;9.156;2022-10-16T02:30:28;2.60;;;1.60;;
3901;SDS011;1966;49.908;9.156;2022-10-16T02:35:29;2.63;;;1.53;;
3901;SDS011;1966;49.908;9.156;2022-10-16T02:40:29;1.50;;;1.40;;
3901;SDS011;1966;49.908;9.156;2022-10-16T02:45:30;2.07;;;1.93;;
3901;SDS011;1966;49.908;9.156;2022-10-16T02:50:29;2.97;;;1.70;;
3901;SDS011;1966;49.908;9.156;2022-10-16T02:55:28;4.73;;;2.13;;
3901;SDS011;1966;49.908;9.156;2022-10-16T03:00:29;2.60;;;2.40;;
3901;SDS011;1966;49.908;9.156;2022-10-16T03:05:29;4.40;;;2.67;;
3901;SDS011;1966;49.908;9.156;2022-10-16T03:10:28;2.50;;;2.30;;
3901;SDS011;1966;49.908;9.156;2022-10-16T03:15:27;2.20;;;2.00;;
3901;SDS011;1966;49.908;9.156;2022-10-16T03:20:28;3.07;;;2.30;;
3901;SDS011;1966;49.908;9.156;2022-10-16T03:25:27;3.37;;;2.23;;
3901;SDS011;1966;49.908;9.156;2022-10-16T03:30:27;3.83;;;2.30;;
3901;SDS011;1966;49.908;9.156;2022-10-16T03:35:26;2.87;;;2.10;;
3901;SDS011;1966;49.908;9.156;2022-10-16T03:40:27;2.43;;;2.23;;
3901;SDS011;1966;49.908;9.156;2022-10-16T03:45:26;3.60;;;2.40;;
3901;SDS011;1966;49.908;9.156;2022-10-16T03:50:25;2.20;;;2.10;;
3901;SDS011;1966;49.908;9.156;2022-10-16T03:55:26;3.50;;;2.20;;
3901;SDS011;1966;49.908;9.156;2022-10-16T04:00:25;2.30;;;2.20;;
3901;SDS011;1966;49.908;9.156;2022-10-16T04:05:25;7.33;;;2.53;;
3901;SDS011;1966;49.908;9.156;2022-10-16T04:10:24;4.90;;;2.23;;
3901;SDS011;1966;49.908;9.156;2022-10-16T04:15:24;3.70;;;2.27;;
3901;SDS011;1966;49.908;9.156;2022-10-16T04:20:24;2.30;;;2.10;;
3901;SDS011;1966;49.908;9.156;2022-10-16T04:25:23;1.83;;;1.73;;
3901;SDS011;1966;49.908;9.156;2022-10-16T04:30:22;3.00;;;2.20;;
3901;SDS011;1966;49.908;9.156;2022-10-16T04:35:23;3.33;;;2.40;;
3901;SDS011;1966;49.908;9.156;2022-10-16T04:40:22;2.27;;;2.17;;
3901;SDS011;1966;49.908;9.156;2022-10-16T04:45:22;2.60;;;2.40;;
3901;SDS011;1966;49.908;9.156;2022-10-16T04:50:21;3.53;;;2.20;;
3901;SDS011;1966;49.908;9.156;2022-10-16T04:55:22;2.87;;;2.07;;
3901;SDS011;1966;49.908;9.156;2022-10-16T05:00:21;2.00;;;1.80;;
3901;SDS011;1966;49.908;9.156;2022-10-16T05:05:21;9.43;;;2.23;;
3901;SDS011;1966;49.908;9.156;2022-10-16T05:10:22;3.90;;;2.53;;
3901;SDS011;1966;49.908;9.156;2022-10-16T05:15:21;3.63;;;2.47;;
3901;SDS011;1966;49.908;9.156;2022-10-16T05:20:22;2.73;;;1.90;;
3901;SDS011;1966;49.908;9.156;2022-10-16T05:25:23;2.50;;;2.30;;
3901;SDS011;1966;49.908;9.156;2022-10-16T05:30:23;8.20;;;2.57;;
3901;SDS011;1966;49.908;9.156;2022-10-16T05:35:22;13.23;;;3.30;;
3901;SDS011;1966;49.908;9.156;2022-10-16T05:40:21;10.37;;;4.20;;
3901;SDS011;1966;49.908;9.156;2022-10-16T05:45:22;6.20;;;5.60;;
3901;SDS011;1966;49.908;9.156;2022-10-16T05:50:22;6.60;;;4.43;;
3901;SDS011;1966;49.908;9.156;2022-10-16T05:55:21;5.07;;;3.30;;
3901;SDS011;1966;49.908;9.156;2022-10-16T06:00:20;6.20;;;3.00;;
3901;SDS011;1966;49.908;9.156;2022-10-16T06:05:21;3.93;;;3.53;;
3901;SDS011;1966;49.908;9.156;2022-10-16T06:10:20;3.10;;;2.90;;
3901;SDS011;1966;49.908;9.156;2022-10-16T06:15:20;5.00;;;3.27;;
3901;SDS011;1966;49.908;9.156;2022-10-16T06:20:19;14.40;;;3.80;;
3901;SDS011;1966;49.908;9.156;2022-10-16T06:25:19;8.10;;;3.90;;
3901;SDS011;1966;49.908;9.156;2022-10-16T06:30:19;4.47;;;4.03;;
3901;SDS011;1966;49.908;9.156;2022-10-16T06:35:18;7.00;;;3.63;;
3901;SDS011;1966;49.908;9.156;2022-10-16T06:40:17;5.30;;;4.10;;
3901;SDS011;1966;49.908;9.156;2022-10-16T06:45:18;3.80;;;3.50;;
3901;SDS011;1966;49.908;9.156;2022-10-16T06:50:17;4.60;;;4.20;;
3901;SDS011;1966;49.908;9.156;2022-10-16T06:55:16;3.80;;;3.50;;
3901;SDS011;1966;49.908;9.156;2022-10-16T07:00:17;4.37;;;3.93;;
3901;SDS011;1966;49.908;9.156;2022-10-16T07:05:16;3.60;;;3.27;;
3901;SDS011;1966;49.908;9.156;2022-10-16T07:10:16;5.47;;;4.10;;
3901;SDS011;1966;49.908;9.156;2022-10-16T07:15:15;4.27;;;3.60;;
3901;SDS011;1966;49.908;9.156;2022-10-16T07:20:16;4.07;;;3.70;;
3901;SDS011;1966;49.908;9.156;2022-10-16T07:25:15;5.83;;;3.47;;
3901;SDS011;1966;49.908;9.156;2022-10-16T07:30:14;4.40;;;4.00;;
3901;SDS011;1966;49.908;9.156;2022-10-16T07:35:13;5.77;;;4.23;;
3901;SDS011;1966;49.908;9.156;2022-10-16T07:40:14;5.53;;;3.50;;
3901;SDS011;1966;49.908;9.156;2022-10-16T07:45:13;3.73;;;3.43;;
3901;SDS011;1966;49.908;9.156;2022-10-16T07:50:13;4.10;;;3.77;;
3901;SDS011;1966;49.908;9.156;2022-10-16T07:55:12;4.60;;;4.00;;
3901;SDS011;1966;49.908;9.156;2022-10-16T08:00:13;4.40;;;3.63;;
3901;SDS011;1966;49.908;9.156;2022-10-16T08:05:12;6.17;;;4.37;;
3901;SDS011;1966;49.908;9.156;2022-10-16T08:10:12;7.67;;;5.30;;
3901;SDS011;1966;49.908;9.156;2022-10-16T08:15:16;6.20;;;5.40;;
3901;SDS011;1966;49.908;9.156;2022-10-16T08:20:15;6.60;;;5.10;;
3901;SDS011;1966;49.908;9.156;2022-10-16T08:25:14;6.73;;;4.90;;
3901;SDS011;1966;49.908;9.156;2022-10-16T08:30:14;6.87;;;4.33;;
3901;SDS011;1966;49.908;9.156;2022-10-16T08:35:14;7.20;;;4.03;;
3901;SDS011;1966;49.908;9.156;2022-10-16T08:40:16;7.40;;;3.50;;
3901;SDS011;1966;49.908;9.156;2022-10-16T08:45:21;5.40;;;3.00;;
3901;SDS011;1966;49.908;9.156;2022-10-16T08:50:26;5.23;;;3.93;;
3901;SDS011;1966;49.908;9.156;2022-10-16T08:55:30;7.73;;;4.30;;
3901;SDS011;1966;49.908;9.156;2022-10-16T09:00:31;5.30;;;4.13;;
3901;SDS011;1966;49.908;9.156;2022-10-16T09:10:55;5.77;;;3.97;;
3901;SDS011;1966;49.908;9.156;2022-10-16T09:15:58;5.77;;;4.17;;
3901;SDS011;1966;49.908;9.156;2022-10-16T09:20:59;5.80;;;4.27;;
3901;SDS011;1966;49.908;9.156;2022-10-16T09:26:01;6.10;;;4.60;;
3901;SDS011;1966;49.908;9.156;2022-10-16T09:31:01;7.20;;;5.50;;
3901;SDS011;1966;49.908;9.156;2022-10-16T09:36:01;8.10;;;4.90;;
3901;SDS011;1966;49.908;9.156;2022-10-16T09:41:09;8.00;;;4.53;;
3901;SDS011;1966;49.908;9.156;2022-10-16T09:46:20;3.83;;;3.40;;
3901;SDS011;1966;49.908;9.156;2022-10-16T09:51:21;5.00;;;3.00;;
3901;SDS011;1966;49.908;9.156;2022-10-16T09:56:24;5.63;;;2.90;;
3901;SDS011;1966;49.908;9.156;2022-10-16T10:01:24;2.83;;;2.63;;
3901;SDS011;1966;49.908;9.156;2022-10-16T10:06:27;3.37;;;2.83;;
3901;SDS011;1966;49.908;9.156;2022-10-16T10:11:42;5.03;;;2.33;;
3901;SDS011;1966;49.908;9.156;2022-10-16T10:16:42;6.03;;;3.20;;
3901;SDS011;1966;49.908;9.156;2022-10-16T10:21:41;4.20;;;2.37;;
3901;SDS011;1966;49.908;9.156;2022-10-16T10:26:44;2.80;;;2.60;;
3901;SDS011;1966;49.908;9.156;2022-10-16T10:31:46;2.30;;;2.17;;
3901;SDS011;1966;49.908;9.156;2022-10-16T10:36:48;2.63;;;2.43;;
3901;SDS011;1966;49.908;9.156;2022-10-16T10:42:02;5.43;;;2.40;;
3901;SDS011;1966;49.908;9.156;2022-10-16T10:47:05;2.40;;;2.20;;
3901;SDS011;1966;49.908;9.156;2022-10-16T10:52:10;2.70;;;2.50;;
3901;SDS011;1966;49.908;9.156;2022-10-16T10:57:15;3.78;;;2.10;;
3901;SDS011;1966;49.908;9.156;2022-10-16T11:02:19;3.13;;;2.50;;
3901;SDS011;1966;49.908;9.156;2022-10-16T11:07:23;4.20;;;2.30;;
3901;SDS011;1966;49.908;9.156;2022-10-16T11:12:25;3.30;;;2.30;;
3901;SDS011;1966;49.908;9.156;2022-10-16T11:17:26;2.90;;;2.10;;
3901;SDS011;1966;49.908;9.156;2022-10-16T11:22:29;3.80;;;2.20;;
3901;SDS011;1966;49.908;9.156;2022-10-16T11:27:36;2.30;;;2.03;;
3901;SDS011;1966;49.908;9.156;2022-10-16T11:32:38;2.30;;;2.10;;
3901;SDS011;1966;49.908;9.156;2022-10-16T11:37:41;3.73;;;2.13;;
3901;SDS011;1966;49.908;9.156;2022-10-16T11:42:46;3.20;;;2.33;;
3901;SDS011;1966;49.908;9.156;2022-10-16T11:47:48;2.80;;;1.93;;
3901;SDS011;1966;49.908;9.156;2022-10-16T11:52:51;6.30;;;2.30;;
3901;SDS011;1966;49.908;9.156;2022-10-16T11:57:54;3.00;;;1.90;;
3901;SDS011;1966;49.908;9.156;2022-10-16T12:02:58;3.90;;;2.10;;
3901;SDS011;1966;49.908;9.156;2022-10-16T12:08:02;3.20;;;2.00;;
3901;SDS011;1966;49.908;9.156;2022-10-16T12:13:05;3.03;;;2.13;;
3901;SDS011;1966;49.908;9.156;2022-10-16T12:18:07;2.47;;;2.20;;
3901;SDS011;1966;49.908;9.156;2022-10-16T12:23:19;4.80;;;2.60;;
3901;SDS011;1966;49.908;9.156;2022-10-16T12:28:21;2.60;;;2.40;;
3901;SDS011;1966;49.908;9.156;2022-10-16T12:33:22;2.60;;;2.10;;
3901;SDS011;1966;49.908;9.156;2022-10-16T12:38:24;2.13;;;1.93;;
3901;SDS011;1966;49.908;9.156;2022-10-16T12:43:28;1.83;;;1.73;;
3901;SDS011;1966;49.908;9.156;2022-10-16T12:48:27;2.93;;;1.70;;
3901;SDS011;1966;49.908;9.156;2022-10-16T12:53:27;2.23;;;2.03;;
3901;SDS011;1966;49.908;9.156;2022-10-16T12:58:40;3.40;;;1.90;;
3901;SDS011;1966;49.908;9.156;2022-10-16T13:03:45;4.30;;;2.10;;
3901;SDS011;1966;49.908;9.156;2022-10-16T13:08:52;3.50;;;2.40;;
3901;SDS011;1966;49.908;9.156;2022-10-16T13:14:03;2.57;;;2.20;;
3901;SDS011;1966;49.908;9.156;2022-10-16T13:19:09;4.17;;;2.30;;
3901;SDS011;1966;49.908;9.156;2022-10-16T13:24:15;3.30;;;2.00;;
3901;SDS011;1966;49.908;9.156;2022-10-16T13:29:19;2.50;;;2.20;;
3901;SDS011;1966;49.908;9.156;2022-10-16T13:34:20;3.07;;;2.60;;
3901;SDS011;1966;49.908;9.156;2022-10-16T13:39:21;2.73;;;2.53;;
3901;SDS011;1966;49.908;9.156;2022-10-16T13:44:22;3.00;;;2.70;;
3901;SDS011;1966;49.908;9.156;2022-10-16T13:49:21;5.00;;;2.40;;
3901;SDS011;1966;49.908;9.156;2022-10-16T13:54:21;2.90;;;2.47;;
3901;SDS011;1966;49.908;9.156;2022-10-16T13:59:25;5.00;;;2.80;;
3901;SDS011;1966;49.908;9.156;2022-10-16T14:04:25;3.63;;;2.50;;
3901;SDS011;1966;49.908;9.156;2022-10-16T14:09:26;8.83;;;3.40;;
3901;SDS011;1966;49.908;9.156;2022-10-16T14:14:31;6.00;;;4.20;;
3901;SDS011;1966;49.908;9.156;2022-10-16T14:19:33;4.50;;;3.33;;
3901;SDS011;1966;49.908;9.156;2022-10-16T14:24:33;3.20;;;2.90;;
3901;SDS011;1966;49.908;9.156;2022-10-16T14:29:34;5.87;;;2.90;;
3901;SDS011;1966;49.908;9.156;2022-10-16T14:34:34;4.30;;;3.67;;
3901;SDS011;1966;49.908;9.156;2022-10-16T14:39:34;9.97;;;8.83;;
3901;SDS011;1966;49.908;9.156;2022-10-16T14:44:35;6.70;;;6.10;;
3901;SDS011;1966;49.908;9.156;2022-10-16T14:49:35;13.23;;;8.17;;
3901;SDS011;1966;49.908;9.156;2022-10-16T14:54:34;22.37;;;16.70;;
3901;SDS011;1966;49.908;9.156;2022-10-16T14:59:34;9.20;;;7.90;;
3901;SDS011;1966;49.908;9.156;2022-10-16T15:04:35;8.07;;;5.90;;
3901;SDS011;1966;49.908;9.156;2022-10-16T15:09:35;13.93;;;4.10;;
3901;SDS011;1966;49.908;9.156;2022-10-16T15:14:34;7.43;;;3.80;;
3901;SDS011;1966;49.908;9.156;2022-10-16T15:19:33;4.57;;;3.37;;
3901;SDS011;1966;49.908;9.156;2022-10-16T15:24:34;5.40;;;3.23;;
3901;SDS011;1966;49.908;9.156;2022-10-16T15:29:33;4.40;;;3.80;;
3901;SDS011;1966;49.908;9.156;2022-10-16T15:34:32;6.83;;;3.80;;
3901;SDS011;1966;49.908;9.156;2022-10-16T15:39:34;4.10;;;3.13;;
3901;SDS011;1966;49.908;9.156;2022-10-16T15:44:35;7.73;;;3.43;;
3901;SDS011;1966;49.908;9.156;2022-10-16T15:49:36;8.43;;;3.57;;
3901;SDS011;1966;49.908;9.156;2022-10-16T15:54:40;3.30;;;3.10;;
3901;SDS011;1966;49.908;9.156;2022-10-16T15:59:40;3.33;;;2.77;;
3901;SDS011;1966;49.908;9.156;2022-10-16T16:04:43;4.70;;;2.90;;
3901;SDS011;1966;49.908;9.156;2022-10-16T16:09:46;7.47;;;4.70;;
3901;SDS011;1966;49.908;9.156;2022-10-16T16:14:47;5.60;;;4.60;;
3901;SDS011;1966;49.908;9.156;2022-10-16T16:19:47;5.20;;;3.97;;
3901;SDS011;1966;49.908;9.156;2022-10-16T16:24:49;9.80;;;4.20;;
3901;SDS011;1966;49.908;9.156;2022-10-16T16:29:48;4.73;;;3.83;;
3901;SDS011;1966;49.908;9.156;2022-10-16T16:34:49;9.33;;;3.97;;
3901;SDS011;1966;49.908;9.156;2022-10-16T16:39:55;10.53;;;5.10;;
3901;SDS011;1966;49.908;9.156;2022-10-16T16:44:58;7.07;;;4.60;;
3901;SDS011;1966;49.908;9.156;2022-10-16T16:50:01;11.53;;;5.30;;
3901;SDS011;1966;49.908;9.156;2022-10-16T16:55:06;9.67;;;5.50;;
3901;SDS011;1966;49.908;9.156;2022-10-16T17:00:08;12.07;;;5.17;;
3901;SDS011;1966;49.908;9.156;2022-10-16T17:05:09;9.90;;;6.77;;
3901;SDS011;1966;49.908;9.156;2022-10-16T17:10:12;10.97;;;7.30;;
3901;SDS011;1966;49.908;9.156;2022-10-16T17:15:14;11.00;;;7.10;;
3901;SDS011;1966;49.908;9.156;2022-10-16T17:20:16;15.37;;;6.50;;
3901;SDS011;1966;49.908;9.156;2022-10-16T17:25:19;9.00;;;5.20;;
3901;SDS011;1966;49.908;9.156;2022-10-16T17:30:22;5.77;;;5.20;;
3901;SDS011;1966;49.908;9.156;2022-10-16T17:35:24;12.83;;;8.97;;
3901;SDS011;1966;49.908;9.156;2022-10-16T17:40:28;17.23;;;10.07;;
3901;SDS011;1966;49.908;9.156;2022-10-16T17:45:29;22.43;;;12.97;;
3901;SDS011;1966;49.908;9.156;2022-10-16T17:50:28;13.20;;;8.90;;
3901;SDS011;1966;49.908;9.156;2022-10-16T17:55:30;9.83;;;5.40;;
3901;SDS011;1966;49.908;9.156;2022-10-16T18:00:29;6.60;;;6.00;;
3901;SDS011;1966;49.908;9.156;2022-10-16T18:05:29;8.50;;;5.03;;
3901;SDS011;1966;49.908;9.156;2022-10-16T18:10:30;7.57;;;5.00;;
3901;SDS011;1966;49.908;9.156;2022-10-16T18:15:31;8.20;;;4.20;;
3901;SDS011;1966;49.908;9.156;2022-10-16T18:20:33;7.53;;;4.43;;
3901;SDS011;1966;49.908;9.156;2022-10-16T18:25:34;4.47;;;4.07;;
3901;SDS011;1966;49.908;9.156;2022-10-16T18:30:36;6.07;;;4.30;;
3901;SDS011;1966;49.908;9.156;2022-10-16T18:35:37;6.40;;;4.40;;
3901;SDS011;1966;49.908;9.156;2022-10-16T18:40:41;17.73;;;4.60;;
3901;SDS011;1966;49.908;9.156;2022-10-16T18:45:42;8.80;;;5.20;;
3901;SDS011;1966;49.908;9.156;2022-10-16T18:50:43;9.53;;;5.00;;
3901;SDS011;1966;49.908;9.156;2022-10-16T18:55:47;5.73;;;5.10;;
3901;SDS011;1966;49.908;9.156;2022-10-16T19:00:50;8.87;;;5.00;;
3901;SDS011;1966;49.908;9.156;2022-10-16T19:05:50;6.50;;;5.23;;
3901;SDS011;1966;49.908;9.156;2022-10-16T19:10:52;10.00;;;5.17;;
3901;SDS011;1966;49.908;9.156;2022-10-16T19:15:53;6.60;;;5.10;;
3901;SDS011;1966;49.908;9.156;2022-10-16T19:20:54;9.33;;;5.53;;
3901;SDS011;1966;49.908;9.156;2022-10-16T19:25:56;7.17;;;5.50;;
3901;SDS011;1966;49.908;9.156;2022-10-16T19:31:01;9.07;;;6.10;;
3901;SDS011;1966;49.908;9.156;2022-10-16T19:36:05;7.53;;;5.20;;
3901;SDS011;1966;49.908;9.156;2022-10-16T19:41:11;9.73;;;5.80;;
3901;SDS011;1966;49.908;9.156;2022-10-16T19:46:15;16.43;;;5.90;;
3901;SDS011;1966;49.908;9.156;2022-10-16T19:51:17;11.63;;;4.50;;
3901;SDS011;1966;49.908;9.156;2022-10-16T19:56:21;8.10;;;5.20;;
3901;SDS011;1966;49.908;9.156;2022-10-16T20:01:21;7.30;;;5.07;;
3901;SDS011;1966;49.908;9.156;2022-10-16T20:06:22;5.33;;;4.83;;
3901;SDS011;1966;49.908;9.156;2022-10-16T20:11:25;7.40;;;5.10;;
3901;SDS011;1966;49.908;9.156;2022-10-16T20:16:27;8.03;;;5.70;;
3901;SDS011;1966;49.908;9.156;2022-10-16T20:21:31;11.40;;;5.20;;
3901;SDS011;1966;49.908;9.156;2022-10-16T20:26:35;10.17;;;6.03;;
3901;SDS011;1966;49.908;9.156;2022-10-16T20:31:35;9.80;;;5.30;;
3901;SDS011;1966;49.908;9.156;2022-10-16T20:36:35;12.43;;;5.90;;
3901;SDS011;1966;49.908;9.156;2022-10-16T20:41:37;11.10;;;6.20;;
3901;SDS011;1966;49.908;9.156;2022-10-16T20:46:40;8.93;;;6.03;;
3901;SDS011;1966;49.908;9.156;2022-10-16T20:51:40;9.13;;;5.60;;
3901;SDS011;1966;49.908;9.156;2022-10-16T20:56:42;6.23;;;4.90;;
3901;SDS011;1966;49.908;9.156;2022-10-16T21:01:42;6.73;;;5.97;;
3901;SDS011;1966;49.908;9.156;2022-10-16T21:06:44;23.03;;;5.87;;
3901;SDS011;1966;49.908;9.156;2022-10-16T21:11:47;9.47;;;5.83;;
3901;SDS011;1966;49.908;9.156;2022-10-16T21:16:50;7.73;;;4.73;;
3901;SDS011;1966;49.908;9.156;2022-10-16T21:21:50;6.30;;;5.00;;
3901;SDS011;1966;49.908;9.156;2022-10-16T21:26:50;7.93;;;5.57;;
3901;SDS011;1966;49.908;9.156;2022-10-16T21:31:50;19.43;;;6.60;;
3901;SDS011;1966;49.908;9.156;2022-10-16T21:36:50;11.93;;;5.47;;
3901;SDS011;1966;49.908;9.156;2022-10-16T21:41:51;6.00;;;5.03;;
3901;SDS011;1966;49.908;9.156;2022-10-16T21:46:50;5.80;;;4.97;;
3901;SDS011;1966;49.908;9.156;2022-10-16T21:51:50;8.03;;;5.20;;
3901;SDS011;1966;49.908;9.156;2022-10-16T21:56:50;10.50;;;5.10;;
3901;SDS011;1966;49.908;9.156;2022-10-16T22:01:51;7.67;;;4.77;;
3901;SDS011;1966;49.908;9.156;2022-10-16T22:06:50;6.70;;;5.13;;
3901;SDS011;1966;49.908;9.156;2022-10-16T22:11:51;6.87;;;4.80;;
3901;SDS011;1966;49.908;9.156;2022-10-16T22:16:50;8.63;;;5.00;;
3901;SDS011;1966;49.908;9.156;2022-10-16T22:21:49;7.40;;;5.67;;
3901;SDS011;1966;49.908;9.156;2022-10-16T22:26:55;8.33;;;4.90;;
3901;SDS011;1966;49.908;9.156;2022-10-16T22:31:54;9.70;;;5.53;;
3901;SDS011;1966;49.908;9.156;2022-10-16T22:36:54;9.37;;;5.20;;
3901;SDS011;1966;49.908;9.156;2022-10-16T22:41:53;8.33;;;5.10;;
3901;SDS011;1966;49.908;9.156;2022-10-16T22:46:54;11.20;;;5.03;;
3901;SDS011;1966;49.908;9.156;2022-10-16T22:51:53;7.70;;;5.27;;
3901;SDS011;1966;49.908;9.156;2022-10-16T22:56:52;10.17;;;5.33;;
3901;SDS011;1966;49.908;9.156;2022-10-16T23:01:52;7.07;;;5.97;;
3901;SDS011;1966;49.908;9.156;2022-10-16T23:06:52;10.60;;;6.67;;
3901;SDS011;1966;49.908;9.156;2022-10-16T23:11:51;11.23;;;6.47;;
3901;SDS011;1966;49.908;9.156;2022-10-16T23:16:51;10.70;;;8.30;;
3901;SDS011;1966;49.908;9.156;2022-10-16T23:21:50;13.63;;;7.50;;
3901;SDS011;1966;49.908;9.156;2022-10-16T23:26:51;10.20;;;7.27;;
3901;SDS011;1966;49.908;9.156;2022-10-16T23:31:52;12.73;;;6.37;;
3901;SDS011;1966;49.908;9.156;2022-10-16T23:36:51;19.83;;;7.43;;
3901;SDS011;1966;49.908;9.156;2022-10-16T23:41:52;15.47;;;7.10;;
3901;SDS011;1966;49.908;9.156;2022-10-16T23:46:51;9.03;;;7.33;;
3901;SDS011;1966;49.908;9.156;2022-10-16T23:51:50;12.13;;;6.90;;
3901;SDS011;1966;49.908;9.156;2022-10-16T23:56:50;8.60;;;6.40;;
